Time;durP1;ratioP1;P1;durP2;ratioP2;P2;SDS_P1;SDS_P2;PMS_P1;PMS_P2;Temp;Humidity;BMP_temperature;BMP_pressure;BME280_temperature;BME280_humidity;BME280_pressure;Samples;Min_cycle;Max_cycle;Signal;HPM_P1;HPM_P2
2022/09/17 00:00:25;;;;;;;3.30;1.60;;;;;;;;;;4970695;28;20078;-57
2022/09/17 00:02:54;;;;;;;5.15;2.00;;;;;;;;;;4962320;28;20035;-57
2022/09/17 00:05:23;;;;;;;1.83;1.70;;;;;;;;;;4971812;28;20023;-57
2022/09/17 00:07:50;;;;;;;2.88;1.77;;;;;;;;;;4971608;28;20447;-57
2022/09/17 00:10:16;;;;;;;;;;;;;;;;;;4967472;28;20030;-55
2022/09/17 00:12:42;;;;;;;4.55;1.90;;;;;;;;;;4975733;28;19906;-55
2022/09/17 00:15:08;;;;;;;3.08;1.70;;;;;;;;;;4967931;28;20023;-57
2022/09/17 00:17:35;;;;;;;4.40;1.70;;;;;;;;;;4974697;28;20026;-56
2022/09/17 00:20:01;;;;;;;2.40;1.83;;;;;;;;;;4975784;28;20035;-57
2022/09/17 00:22:27;;;;;;;6.00;2.27;;;;;;;;;;4971046;28;20031;-57
2022/09/17 00:24:53;;;;;;;3.05;2.30;;;;;;;;;;4973564;28;20774;-57
2022/09/17 00:27:19;;;;;;;3.55;2.13;;;;;;;;;;4975807;28;20053;-55
2022/09/17 00:29:47;;;;;;;5.10;1.73;;;;;;;;;;4975261;28;20030;-57
2022/09/17 00:32:13;;;;;;;7.97;2.05;;;;;;;;;;4971962;28;20362;-56
2022/09/17 00:34:39;;;;;;;2.90;2.20;;;;;;;;;;4959389;28;20257;-57
2022/09/17 00:37:05;;;;;;;5.82;2.13;;;;;;;;;;4969879;28;20415;-57
2022/09/17 00:39:31;;;;;;;4.05;1.60;;;;;;;;;;4972574;28;20027;-55
2022/09/17 00:41:57;;;;;;;5.13;1.88;;;;;;;;;;4974845;28;20038;-57
2022/09/17 00:44:36;;;;;;;1.15;1.05;;;;;;;;;;4974695;28;20097;-57
2022/09/17 00:47:02;;;;;;;1.33;1.10;;;;;;;;;;4975007;28;20077;-57
2022/09/17 00:49:29;;;;;;;8.40;1.83;;;;;;;;;;4974784;28;20496;-57
2022/09/17 00:51:58;;;;;;;3.25;1.80;;;;;;;;;;4975635;28;20027;-56
2022/09/17 00:54:25;;;;;;;2.72;1.45;;;;;;;;;;4974435;28;20046;-57
2022/09/17 00:56:51;;;;;;;2.65;1.05;;;;;;;;;;4975560;28;20035;-57
2022/09/17 00:59:18;;;;;;;6.80;1.02;;;;;;;;;;4975264;28;20049;-55
2022/09/17 01:01:45;;;;;;;2.47;1.33;;;;;;;;;;4973959;28;20042;-57
2022/09/17 01:04:21;;;;;;;1.75;1.10;;;;;;;;;;4974516;28;20035;-57
2022/09/17 01:06:56;;;;;;;2.50;1.05;;;;;;;;;;4975349;28;20031;-57
2022/09/17 01:09:25;;;;;;;2.47;1.27;;;;;;;;;;4974368;28;20158;-57
2022/09/17 01:11:59;;;;;;;1.20;0.90;;;;;;;;;;4975391;28;20053;-57
2022/09/17 01:14:25;;;;;;;1.77;1.40;;;;;;;;;;4973236;28;20424;-56
2022/09/17 01:16:52;;;;;;;1.45;1.33;;;;;;;;;;4974703;28;20030;-57
2022/09/17 01:19:37;;;;;;;5.53;1.00;;;;;;;;;;4974640;28;20515;-57
2022/09/17 01:22:07;;;;;;;3.92;0.77;;;;;;;;;;4973076;28;20030;-56
2022/09/17 01:24:36;;;;;;;1.30;0.88;;;;;;;;;;4973618;28;20026;-57
2022/09/17 01:27:21;;;;;;;3.08;1.48;;;;;;;;;;4974785;28;20035;-56
2022/09/17 01:30:09;;;;;;;1.77;1.20;;;;;;;;;;4975101;28;20053;-57
2022/09/17 01:32:41;;;;;;;3.47;1.10;;;;;;;;;;4974941;28;20114;-57
2022/09/17 01:35:13;;;;;;;1.58;1.13;;;;;;;;;;4974063;28;20034;-57
2022/09/17 01:37:44;;;;;;;4.45;1.65;;;;;;;;;;4973717;28;20046;-57
2022/09/17 01:40:23;;;;;;;4.20;1.60;;;;;;;;;;4973358;28;20511;-57
2022/09/17 01:42:49;;;;;;;4.15;1.52;;;;;;;;;;4972586;28;20035;-57
2022/09/17 01:45:19;;;;;;;3.13;1.30;;;;;;;;;;4973073;28;20514;-57
2022/09/17 01:47:54;;;;;;;2.17;1.50;;;;;;;;;;4974090;28;20030;-57
2022/09/17 01:50:28;;;;;;;3.65;1.30;;;;;;;;;;4974975;28;20023;-57
2022/09/17 01:52:55;;;;;;;4.55;1.30;;;;;;;;;;5020458;22;20050;-60
2022/09/17 01:55:23;;;;;;;4.40;1.55;;;;;;;;;;4993655;28;20026;-60
2022/09/17 01:57:52;;;;;;;3.45;0.98;;;;;;;;;;4994305;28;20518;-59
2022/09/17 02:00:19;;;;;;;1.40;1.08;;;;;;;;;;4993921;28;20409;-60
2022/09/17 02:03:00;;;;;;;4.85;1.20;;;;;;;;;;4993549;28;20037;-60
2022/09/17 02:05:31;;;;;;;1.23;0.98;;;;;;;;;;4993588;28;20061;-59
2022/09/17 02:08:02;;;;;;;3.15;0.90;;;;;;;;;;4991460;28;20037;-60
2022/09/17 02:10:30;;;;;;;1.17;1.10;;;;;;;;;;4992443;28;20068;-60
2022/09/17 02:12:59;;;;;;;1.92;1.02;;;;;;;;;;4993338;28;20019;-59
2022/09/17 02:15:28;;;;;;;1.13;0.70;;;;;;;;;;4993572;28;20030;-57
2022/09/17 02:18:15;;;;;;;2.35;1.10;;;;;;;;;;4993578;28;20058;-60
2022/09/17 02:20:52;;;;;;;2.53;1.25;;;;;;;;;;4987686;28;20097;-60
2022/09/17 02:23:23;;;;;;;1.25;0.98;;;;;;;;;;4992982;28;20081;-58
2022/09/17 02:26:02;;;;;;;3.40;0.90;;;;;;;;;;4993014;28;20138;-58
2022/09/17 02:28:33;;;;;;;6.15;1.08;;;;;;;;;;4992082;28;20525;-59
2022/09/17 02:30:59;;;;;;;4.05;0.90;;;;;;;;;;4992732;28;20019;-59
2022/09/17 02:33:26;;;;;;;1.58;0.93;;;;;;;;;;4992515;28;20037;-59
2022/09/17 02:35:52;;;;;;;2.45;0.88;;;;;;;;;;4993061;28;20514;-59
2022/09/17 02:38:22;;;;;;;1.90;0.80;;;;;;;;;;4992541;28;20530;-59
2022/09/17 02:40:53;;;;;;;0.60;0.60;;;;;;;;;;4993024;28;20065;-59
2022/09/17 02:43:25;;;;;;;3.88;0.82;;;;;;;;;;4993095;28;20030;-59
2022/09/17 02:45:51;;;;;;;4.35;0.77;;;;;;;;;;4993226;28;20105;-59
2022/09/17 02:48:27;;;;;;;2.38;0.82;;;;;;;;;;4993045;28;20117;-58
2022/09/17 02:51:05;;;;;;;1.48;1.00;;;;;;;;;;4993076;28;20026;-59
2022/09/17 02:53:31;;;;;;;;;;;;;;;;;;4992808;28;20030;-58
2022/09/17 02:56:16;;;;;;;2.50;0.90;;;;;;;;;;4993009;28;20294;-59
2022/09/17 02:58:49;;;;;;;0.63;0.50;;;;;;;;;;4992890;28;20034;-60
2022/09/17 03:01:43;;;;;;;1.13;0.95;;;;;;;;;;4992062;28;20089;-59
2022/09/17 03:04:10;;;;;;;1.58;0.90;;;;;;;;;;4987344;28;20062;-60
2022/09/17 03:06:37;;;;;;;1.85;0.70;;;;;;;;;;4990472;28;20060;-58
2022/09/17 03:09:03;;;;;;;1.15;1.05;;;;;;;;;;4989025;28;20028;-60
2022/09/17 03:11:29;;;;;;;3.17;0.70;;;;;;;;;;4989816;28;20438;-59
2022/09/17 03:13:57;;;;;;;1.30;0.70;;;;;;;;;;4989984;28;20288;-59
2022/09/17 03:16:23;;;;;;;0.68;0.60;;;;;;;;;;4971778;28;20114;-60
2022/09/17 03:18:49;;;;;;;3.58;1.33;;;;;;;;;;4972781;28;20030;-58
2022/09/17 03:21:15;;;;;;;0.50;0.50;;;;;;;;;;4973342;28;20519;-59
2022/09/17 03:23:41;;;;;;;1.45;0.57;;;;;;;;;;4973009;28;20085;-60
2022/09/17 03:26:08;;;;;;;1.30;0.45;;;;;;;;;;4973895;28;20031;-59
2022/09/17 03:28:34;;;;;;;0.80;0.80;;;;;;;;;;4992745;28;20033;-58
2022/09/17 03:31:00;;;;;;;0.68;0.50;;;;;;;;;;4992543;28;20030;-59
2022/09/17 03:33:26;;;;;;;3.08;1.10;;;;;;;;;;4992274;28;20023;-58
2022/09/17 03:35:52;;;;;;;0.75;0.70;;;;;;;;;;4992555;28;20092;-58
2022/09/17 03:38:18;;;;;;;1.27;0.65;;;;;;;;;;4992439;28;20030;-59
2022/09/17 03:40:44;;;;;;;1.17;0.60;;;;;;;;;;4992039;28;20105;-59
2022/09/17 03:43:10;;;;;;;1.92;0.80;;;;;;;;;;4992190;28;20387;-59
2022/09/17 03:45:36;;;;;;;1.88;0.85;;;;;;;;;;4991952;28;20026;-56
2022/09/17 03:48:02;;;;;;;1.27;0.70;;;;;;;;;;4990916;28;20038;-56
2022/09/17 03:50:29;;;;;;;1.80;0.50;;;;;;;;;;4992597;28;20022;-60
2022/09/17 03:52:55;;;;;;;0.70;0.60;;;;;;;;;;4991743;28;20056;-59
2022/09/17 03:55:21;;;;;;;0.98;0.60;;;;;;;;;;4991739;28;20574;-59
2022/09/17 03:57:47;;;;;;;1.42;1.05;;;;;;;;;;4991776;28;20026;-57
2022/09/17 04:00:16;;;;;;;3.00;0.60;;;;;;;;;;4991923;28;20567;-60
2022/09/17 04:02:42;;;;;;;1.58;0.60;;;;;;;;;;4991972;28;20390;-59
2022/09/17 04:05:09;;;;;;;3.22;0.85;;;;;;;;;;4990693;28;20035;-59
2022/09/17 04:07:35;;;;;;;1.13;0.80;;;;;;;;;;4991605;28;20072;-58
2022/09/17 04:10:01;;;;;;;0.95;0.75;;;;;;;;;;4992057;28;20106;-58
2022/09/17 04:12:27;;;;;;;1.38;0.50;;;;;;;;;;4992199;28;20019;-59
2022/09/17 04:14:53;;;;;;;1.67;1.02;;;;;;;;;;4991517;28;20506;-59
2022/09/17 04:17:19;;;;;;;0.90;0.50;;;;;;;;;;4991667;28;20058;-60
2022/09/17 04:19:45;;;;;;;1.00;0.63;;;;;;;;;;4990819;28;20394;-60
2022/09/17 04:22:11;;;;;;;0.93;0.50;;;;;;;;;;4991921;28;20038;-59
2022/09/17 04:24:37;;;;;;;3.70;1.08;;;;;;;;;;4991832;28;20646;-60
2022/09/17 04:27:03;;;;;;;2.65;0.70;;;;;;;;;;4991956;28;20120;-60
2022/09/17 04:29:29;;;;;;;1.13;0.60;;;;;;;;;;4991998;28;20062;-60
2022/09/17 04:31:55;;;;;;;1.95;0.95;;;;;;;;;;4991589;28;20022;-58
2022/09/17 04:34:21;;;;;;;0.52;0.52;;;;;;;;;;4991483;28;20310;-59
2022/09/17 04:36:47;;;;;;;1.00;0.80;;;;;;;;;;4991905;28;20026;-59
2022/09/17 04:39:13;;;;;;;1.10;1.00;;;;;;;;;;4991829;28;20076;-59
2022/09/17 04:41:39;;;;;;;0.80;0.80;;;;;;;;;;4991230;28;20023;-59
2022/09/17 04:44:05;;;;;;;0.75;0.60;;;;;;;;;;4991128;28;20046;-59
2022/09/17 04:46:31;;;;;;;0.65;0.65;;;;;;;;;;4991605;28;20085;-59
2022/09/17 04:48:58;;;;;;;0.85;0.60;;;;;;;;;;4991560;28;20038;-57
2022/09/17 04:51:24;;;;;;;1.55;0.60;;;;;;;;;;4990863;28;20069;-59
2022/09/17 04:53:50;;;;;;;2.57;0.67;;;;;;;;;;4991188;28;20030;-60
2022/09/17 04:56:16;;;;;;;3.00;0.43;;;;;;;;;;4991758;28;20491;-58
2022/09/17 04:58:42;;;;;;;0.60;0.60;;;;;;;;;;4995009;28;20676;-59
2022/09/17 05:01:08;;;;;;;0.88;0.70;;;;;;;;;;4994856;28;20495;-60
2022/09/17 05:03:34;;;;;;;0.70;0.50;;;;;;;;;;4994985;28;20026;-56
2022/09/17 05:06:00;;;;;;;1.02;0.65;;;;;;;;;;4995168;28;20023;-56
2022/09/17 05:08:26;;;;;;;0.97;0.40;;;;;;;;;;4995378;28;20033;-54
2022/09/17 05:10:52;;;;;;;1.42;0.60;;;;;;;;;;4995109;28;20262;-57
2022/09/17 05:13:18;;;;;;;1.00;0.52;;;;;;;;;;4994846;28;20093;-50
2022/09/17 05:15:44;;;;;;;1.65;0.60;;;;;;;;;;4994599;28;20150;-49
2022/09/17 05:18:10;;;;;;;0.68;0.45;;;;;;;;;;4975566;28;20027;-49
2022/09/17 05:20:37;;;;;;;1.15;0.52;;;;;;;;;;4979290;28;20045;-54
2022/09/17 05:23:03;;;;;;;0.55;0.40;;;;;;;;;;4994900;28;20380;-51
2022/09/17 05:25:30;;;;;;;0.52;0.52;;;;;;;;;;4994968;28;20126;-51
2022/09/17 05:27:56;;;;;;;0.60;0.60;;;;;;;;;;4994865;28;20031;-49
2022/09/17 05:30:22;;;;;;;1.67;0.50;;;;;;;;;;4995091;28;20030;-49
2022/09/17 05:32:49;;;;;;;3.83;0.60;;;;;;;;;;4994518;28;20057;-51
2022/09/17 05:35:15;;;;;;;0.73;0.60;;;;;;;;;;4994754;28;20411;-49
2022/09/17 05:37:41;;;;;;;1.98;0.55;;;;;;;;;;4994804;28;20034;-49
2022/09/17 05:40:07;;;;;;;1.58;0.50;;;;;;;;;;4994656;28;20541;-57
2022/09/17 05:42:34;;;;;;;0.75;0.30;;;;;;;;;;4994521;28;20041;-58
2022/09/17 05:45:00;;;;;;;0.40;0.40;;;;;;;;;;4987217;28;20027;-56
2022/09/17 05:47:26;;;;;;;5.18;0.60;;;;;;;;;;4977356;28;20542;-57
2022/09/17 05:49:52;;;;;;;2.13;0.50;;;;;;;;;;4993949;28;20368;-56
2022/09/17 05:52:18;;;;;;;0.60;0.60;;;;;;;;;;4993934;28;20034;-58
2022/09/17 05:54:44;;;;;;;8.98;0.63;;;;;;;;;;4992962;28;20109;-55
2022/09/17 05:57:10;;;;;;;0.68;0.50;;;;;;;;;;4994071;28;20434;-56
2022/09/17 05:59:36;;;;;;;1.30;0.55;;;;;;;;;;4993958;28;20022;-57
2022/09/17 06:02:03;;;;;;;1.30;0.52;;;;;;;;;;4991888;28;20030;-58
2022/09/17 06:04:29;;;;;;;6.97;1.27;;;;;;;;;;4992570;28;20027;-57
2022/09/17 06:06:55;;;;;;;18.10;3.50;;;;;;;;;;4991141;28;20068;-55
2022/09/17 06:09:21;;;;;;;9.73;1.27;;;;;;;;;;4992559;28;20031;-57
2022/09/17 06:11:47;;;;;;;3.85;0.98;;;;;;;;;;4991607;28;20058;-55
2022/09/17 06:14:13;;;;;;;7.78;1.52;;;;;;;;;;4993011;28;20036;-57
2022/09/17 06:16:39;;;;;;;4.13;0.93;;;;;;;;;;4993901;28;20026;-56
2022/09/17 06:19:05;;;;;;;2.53;1.00;;;;;;;;;;4993450;28;20030;-57
2022/09/17 06:21:31;;;;;;;3.85;0.95;;;;;;;;;;4992483;28;20022;-56
2022/09/17 06:23:57;;;;;;;4.47;0.77;;;;;;;;;;4992127;28;20109;-54
2022/09/17 06:26:23;;;;;;;4.53;1.60;;;;;;;;;;4993015;28;20034;-57
2022/09/17 06:28:49;;;;;;;2.05;1.08;;;;;;;;;;4993359;28;20018;-58
2022/09/17 06:31:15;;;;;;;3.90;1.23;;;;;;;;;;4993411;28;20026;-57
2022/09/17 06:33:41;;;;;;;3.65;0.80;;;;;;;;;;4992665;28;20030;-50
2022/09/17 06:36:10;;;;;;;4.32;1.45;;;;;;;;;;4993668;28;20027;-51
2022/09/17 06:38:36;;;;;;;4.13;0.70;;;;;;;;;;4993461;28;20034;-48
2022/09/17 06:41:02;;;;;;;0.82;0.50;;;;;;;;;;4993352;28;20364;-48
2022/09/17 06:43:28;;;;;;;1.13;0.57;;;;;;;;;;4991574;28;20084;-49
2022/09/17 06:45:55;;;;;;;1.98;0.82;;;;;;;;;;4989566;28;20026;-49
2022/09/17 06:48:22;;;;;;;0.55;0.40;;;;;;;;;;4975667;28;20388;-50
2022/09/17 06:50:48;;;;;;;1.65;0.75;;;;;;;;;;4992900;28;20085;-48
2022/09/17 06:53:14;;;;;;;0.50;0.50;;;;;;;;;;4992361;28;20045;-49
2022/09/17 06:55:41;;;;;;;1.55;0.60;;;;;;;;;;4992738;28;20053;-48
2022/09/17 06:58:07;;;;;;;3.10;0.70;;;;;;;;;;4992858;28;20077;-52
2022/09/17 07:00:33;;;;;;;1.38;0.45;;;;;;;;;;4992784;28;20176;-51
2022/09/17 07:03:00;;;;;;;1.43;0.63;;;;;;;;;;4992587;28;20101;-51
2022/09/17 07:05:27;;;;;;;2.15;0.45;;;;;;;;;;4992668;28;20050;-51
2022/09/17 07:07:53;;;;;;;2.45;0.50;;;;;;;;;;4992106;28;20027;-50
2022/09/17 07:10:19;;;;;;;1.27;0.60;;;;;;;;;;4991503;28;20026;-49
2022/09/17 07:12:45;;;;;;;0.82;0.45;;;;;;;;;;4991877;28;20084;-50
2022/09/17 07:15:12;;;;;;;1.85;0.70;;;;;;;;;;4992203;28;20026;-50
2022/09/17 07:17:39;;;;;;;0.60;0.57;;;;;;;;;;4990302;28;20038;-50
2022/09/17 07:20:08;;;;;;;4.05;0.70;;;;;;;;;;4981940;28;20041;-51
2022/09/17 07:22:34;;;;;;;3.13;0.77;;;;;;;;;;4991122;28;20117;-50
2022/09/17 07:25:01;;;;;;;5.85;0.90;;;;;;;;;;4991786;28;20537;-53
2022/09/17 07:27:27;;;;;;;1.47;1.10;;;;;;;;;;4990829;28;20117;-52
2022/09/17 07:29:54;;;;;;;2.33;0.50;;;;;;;;;;4991626;28;20534;-51
2022/09/17 07:32:20;;;;;;;1.50;0.70;;;;;;;;;;4991435;28;20014;-50
2022/09/17 07:34:46;;;;;;;0.87;0.50;;;;;;;;;;4991486;28;20395;-51
2022/09/17 07:37:12;;;;;;;1.00;0.40;;;;;;;;;;4991503;28;20475;-52
2022/09/17 07:39:38;;;;;;;1.40;1.20;;;;;;;;;;4989294;28;20030;-50
2022/09/17 07:42:04;;;;;;;0.80;0.60;;;;;;;;;;4992104;28;20108;-50
2022/09/17 07:44:30;;;;;;;2.92;0.73;;;;;;;;;;4991532;28;20498;-51
2022/09/17 07:46:56;;;;;;;1.45;0.60;;;;;;;;;;4991403;28;20033;-53
2022/09/17 07:49:22;;;;;;;6.03;0.82;;;;;;;;;;4979056;28;20026;-51
2022/09/17 07:51:48;;;;;;;3.30;0.57;;;;;;;;;;4986750;28;20030;-55
2022/09/17 07:54:14;;;;;;;0.52;0.50;;;;;;;;;;4989442;28;20030;-60
2022/09/17 07:56:40;;;;;;;2.55;0.60;;;;;;;;;;4995597;28;20022;-56
2022/09/17 07:59:06;;;;;;;0.50;0.50;;;;;;;;;;4992098;28;20087;-57
2022/09/17 08:01:33;;;;;;;2.67;0.43;;;;;;;;;;4991331;28;20030;-51
2022/09/17 08:03:59;;;;;;;0.73;0.50;;;;;;;;;;4990233;28;20446;-52
2022/09/17 08:06:29;;;;;;;2.30;0.70;;;;;;;;;;4989643;28;20030;-54
2022/09/17 08:08:56;;;;;;;0.50;0.50;;;;;;;;;;4988232;28;20109;-52
2022/09/17 08:11:23;;;;;;;0.88;0.50;;;;;;;;;;4991380;28;20033;-53
2022/09/17 08:13:50;;;;;;;0.80;0.50;;;;;;;;;;4991610;28;20026;-53
2022/09/17 08:16:17;;;;;;;0.75;0.40;;;;;;;;;;4990805;28;20105;-51
2022/09/17 08:18:43;;;;;;;0.75;0.47;;;;;;;;;;4990316;28;20085;-53
2022/09/17 08:21:11;;;;;;;0.73;0.73;;;;;;;;;;4991392;28;20030;-50
2022/09/17 08:23:38;;;;;;;1.88;0.60;;;;;;;;;;4990001;28;20118;-57
2022/09/17 08:26:07;;;;;;;0.40;0.40;;;;;;;;;;4988353;28;20033;-57
2022/09/17 08:28:33;;;;;;;2.38;0.63;;;;;;;;;;4991388;28;20076;-58
2022/09/17 08:31:03;;;;;;;1.23;0.30;;;;;;;;;;4990755;28;20034;-62
2022/09/17 08:33:33;;;;;;;1.88;1.10;;;;;;;;;;4994489;28;20022;-62
2022/09/17 08:35:59;;;;;;;5.25;1.08;;;;;;;;;;4992662;28;20498;-60
2022/09/17 08:38:25;;;;;;;30.02;3.08;;;;;;;;;;4994611;28;20030;-59
2022/09/17 08:41:12;;;;;;;8.82;1.20;;;;;;;;;;4994450;28;20441;-61
2022/09/17 08:43:38;;;;;;;0.50;0.50;;;;;;;;;;4993812;28;20030;-61
2022/09/17 08:46:04;;;;;;;1.70;0.57;;;;;;;;;;4995281;28;20038;-61
2022/09/17 08:48:34;;;;;;;2.33;0.65;;;;;;;;;;4994954;28;20040;-62
2022/09/17 08:51:01;;;;;;;0.63;0.50;;;;;;;;;;4993934;28;20022;-63
2022/09/17 08:53:27;;;;;;;;;;;;;;;;;;4994896;28;20035;-62
2022/09/17 08:55:53;;;;;;;0.40;0.40;;;;;;;;;;4983569;28;19913;-61
2022/09/17 08:58:22;;;;;;;0.60;0.30;;;;;;;;;;4994224;28;20050;-61
2022/09/17 09:01:04;;;;;;;1.27;0.55;;;;;;;;;;4993582;28;20038;-60
2022/09/17 09:03:36;;;;;;;1.88;0.70;;;;;;;;;;4993794;28;20022;-61
2022/09/17 09:06:02;;;;;;;1.10;0.50;;;;;;;;;;4993540;28;20041;-61
2022/09/17 09:08:31;;;;;;;1.33;0.50;;;;;;;;;;4994665;28;20110;-60
2022/09/17 09:10:59;;;;;;;1.52;0.40;;;;;;;;;;4994860;28;20026;-61
2022/09/17 09:13:27;;;;;;;0.40;0.40;;;;;;;;;;4994702;28;20019;-61
2022/09/17 09:15:53;;;;;;;0.40;0.40;;;;;;;;;;4993413;28;20105;-65
2022/09/17 09:18:21;;;;;;;0.93;0.45;;;;;;;;;;4994700;28;20105;-63
2022/09/17 09:21:06;;;;;;;0.38;0.32;;;;;;;;;;4994807;28;20030;-63
2022/09/17 09:23:35;;;;;;;1.45;0.50;;;;;;;;;;4994480;28;20469;-62
2022/09/17 09:26:21;;;;;;;0.63;0.50;;;;;;;;;;4993529;28;20034;-61
2022/09/17 09:29:07;;;;;;;2.83;0.60;;;;;;;;;;4994116;28;20034;-60
2022/09/17 09:31:47;;;;;;;0.47;0.47;;;;;;;;;;4993927;28;20031;-61
2022/09/17 09:34:14;;;;;;;1.85;0.57;;;;;;;;;;4994494;28;20454;-63
2022/09/17 09:36:40;;;;;;;1.20;0.63;;;;;;;;;;4994449;28;20072;-61
2022/09/17 09:39:19;;;;;;;0.68;0.60;;;;;;;;;;4993943;28;20038;-61
2022/09/17 09:41:53;;;;;;;2.65;0.80;;;;;;;;;;4994294;28;20081;-62
2022/09/17 09:44:19;;;;;;;104.43;81.70;;;;;;;;;;4992400;28;20632;-63
2022/09/17 09:46:51;;;;;;;4.18;1.63;;;;;;;;;;4994266;28;20029;-60
2022/09/17 09:49:52;;;;;;;6.72;0.90;;;;;;;;;;4994052;28;20036;-60
2022/09/17 09:52:24;;;;;;;1.67;0.90;;;;;;;;;;4971867;28;20062;-61
2022/09/17 09:54:56;;;;;;;1.08;0.55;;;;;;;;;;4993866;28;20030;-60
2022/09/17 09:57:31;;;;;;;9.68;2.17;;;;;;;;;;4994119;28;20026;-58
2022/09/17 10:00:20;;;;;;;2.00;0.60;;;;;;;;;;4993976;28;20030;-58
2022/09/17 10:02:47;;;;;;;1.48;0.93;;;;;;;;;;4992321;28;20624;-61
2022/09/17 10:05:13;;;;;;;1.45;0.85;;;;;;;;;;4993749;28;20030;-59
2022/09/17 10:07:43;;;;;;;0.90;0.77;;;;;;;;;;4992439;28;20448;-60
2022/09/17 10:10:10;;;;;;;0.70;0.70;;;;;;;;;;4993459;28;20050;-59
2022/09/17 10:12:37;;;;;;;0.70;0.70;;;;;;;;;;4992403;28;20062;-55
2022/09/17 10:15:23;;;;;;;12.05;1.65;;;;;;;;;;4993539;28;20022;-58
2022/09/17 10:17:50;;;;;;;0.50;0.50;;;;;;;;;;4984982;28;20431;-55
2022/09/17 10:20:17;;;;;;;1.95;0.55;;;;;;;;;;4992367;28;20038;-55
2022/09/17 10:22:47;;;;;;;1.33;0.53;;;;;;;;;;4992282;28;20042;-60
2022/09/17 10:25:22;;;;;;;1.60;0.57;;;;;;;;;;4993491;28;20030;-59
2022/09/17 10:27:48;;;;;;;1.10;0.60;;;;;;;;;;4993520;28;20109;-57
2022/09/17 10:30:16;;;;;;;0.80;0.80;;;;;;;;;;4993697;28;20080;-59
2022/09/17 10:32:42;;;;;;;4.20;1.00;;;;;;;;;;4992140;28;20022;-57
2022/09/17 10:35:14;;;;;;;2.10;0.60;;;;;;;;;;4991732;28;20049;-59
2022/09/17 10:37:43;;;;;;;1.10;0.50;;;;;;;;;;4992221;28;20109;-59
2022/09/17 10:40:19;;;;;;;1.80;0.45;;;;;;;;;;4992848;28;20030;-56
2022/09/17 10:42:45;;;;;;;1.45;0.60;;;;;;;;;;4992190;28;20031;-58
2022/09/17 10:45:25;;;;;;;2.53;0.50;;;;;;;;;;4992443;28;20045;-59
2022/09/17 10:47:51;;;;;;;0.43;0.43;;;;;;;;;;4991564;28;20519;-58
2022/09/17 10:50:18;;;;;;;4.38;0.52;;;;;;;;;;4991719;28;20054;-57
2022/09/17 10:52:48;;;;;;;0.50;0.50;;;;;;;;;;4991512;28;20368;-58
2022/09/17 10:55:29;;;;;;;0.88;0.40;;;;;;;;;;4990839;28;20037;-58
2022/09/17 10:58:03;;;;;;;1.15;0.45;;;;;;;;;;4992388;28;20081;-59
2022/09/17 11:00:47;;;;;;;0.68;0.50;;;;;;;;;;4993043;28;20030;-58
2022/09/17 11:03:13;;;;;;;0.65;0.30;;;;;;;;;;4990457;28;20034;-63
2022/09/17 11:05:42;;;;;;;0.73;0.20;;;;;;;;;;4992667;28;20080;-50
2022/09/17 11:08:41;;;;;;;0.65;0.40;;;;;;;;;;4991602;28;20065;-53
2022/09/17 11:11:25;;;;;;;1.13;0.38;;;;;;;;;;4968124;28;20134;-55
2022/09/17 11:13:51;;;;;;;0.63;0.30;;;;;;;;;;4989176;28;20026;-51
2022/09/17 11:16:20;;;;;;;21.23;17.33;;;;;;;;;;4989802;28;20038;-56
2022/09/17 11:19:05;;;;;;;10.63;9.52;;;;;;;;;;4991412;28;20111;-59
2022/09/17 11:22:04;;;;;;;0.63;0.60;;;;;;;;;;4990597;28;20109;-59
2022/09/17 11:24:35;;;;;;;0.40;0.40;;;;;;;;;;4966355;28;20041;-58
2022/09/17 11:27:11;;;;;;;0.43;0.43;;;;;;;;;;4990046;28;20487;-59
2022/09/17 11:30:01;;;;;;;0.55;0.30;;;;;;;;;;4990497;28;20062;-59
2022/09/17 11:32:30;;;;;;;0.88;0.45;;;;;;;;;;4991370;28;20030;-59
2022/09/17 11:35:15;;;;;;;0.40;0.40;;;;;;;;;;4991831;28;20491;-59
2022/09/17 11:37:42;;;;;;;0.30;0.30;;;;;;;;;;4990374;28;20053;-59
2022/09/17 11:40:14;;;;;;;1.50;0.57;;;;;;;;;;4991595;28;20045;-57
2022/09/17 11:42:46;;;;;;;13.95;1.75;;;;;;;;;;4991638;28;20030;-58
2022/09/17 11:45:14;;;;;;;6.10;1.15;;;;;;;;;;4990967;28;20038;-58
2022/09/17 11:47:50;;;;;;;1.67;0.60;;;;;;;;;;4981833;28;20439;-59
2022/09/17 11:50:18;;;;;;;3.47;1.13;;;;;;;;;;4980967;28;20027;-59
2022/09/17 11:52:46;;;;;;;1.60;0.80;;;;;;;;;;4989150;28;20061;-59
2022/09/17 11:55:26;;;;;;;6.40;1.02;;;;;;;;;;4991504;28;20027;-60
2022/09/17 11:57:56;;;;;;;1.05;0.57;;;;;;;;;;4991954;28;20034;-59
2022/09/17 12:00:22;;;;;;;0.50;0.50;;;;;;;;;;4992149;28;20022;-58
2022/09/17 12:03:01;;;;;;;0.40;0.40;;;;;;;;;;4991452;28;20092;-59
2022/09/17 12:05:39;;;;;;;1.50;0.60;;;;;;;;;;4992199;28;20491;-60
2022/09/17 12:08:17;;;;;;;0.40;0.40;;;;;;;;;;4995803;28;20026;-59
2022/09/17 12:10:49;;;;;;;0.60;0.35;;;;;;;;;;4996019;28;20395;-59
2022/09/17 12:13:18;;;;;;;1.95;0.40;;;;;;;;;;4996235;28;20424;-56
2022/09/17 12:15:49;;;;;;;0.63;0.55;;;;;;;;;;4996151;28;20539;-59
2022/09/17 12:18:21;;;;;;;1.75;0.35;;;;;;;;;;4996129;28;20103;-59
2022/09/17 12:20:49;;;;;;;2.20;0.70;;;;;;;;;;4996096;28;20080;-59
2022/09/17 12:23:17;;;;;;;0.30;0.30;;;;;;;;;;4995726;28;20027;-59
2022/09/17 12:25:57;;;;;;;0.40;0.40;;;;;;;;;;4995704;28;20027;-59
2022/09/17 12:28:50;;;;;;;1.92;0.50;;;;;;;;;;4995298;28;20038;-59
2022/09/17 12:31:25;;;;;;;1.38;0.95;;;;;;;;;;4988939;28;20063;-59
2022/09/17 12:33:56;;;;;;;0.40;0.40;;;;;;;;;;4992006;28;20058;-58
2022/09/17 12:36:25;;;;;;;1.00;0.50;;;;;;;;;;4995900;28;20140;-58
2022/09/17 12:38:54;;;;;;;1.58;0.70;;;;;;;;;;4994547;28;20391;-59
2022/09/17 12:41:32;;;;;;;0.70;0.70;;;;;;;;;;4995348;28;20026;-59
2022/09/17 12:44:10;;;;;;;4.55;0.57;;;;;;;;;;4994780;28;20018;-58
2022/09/17 12:46:48;;;;;;;0.47;0.47;;;;;;;;;;4985356;28;20043;-59
2022/09/17 12:49:14;;;;;;;0.93;0.35;;;;;;;;;;4995279;28;20398;-59
2022/09/17 12:51:46;;;;;;;0.40;0.40;;;;;;;;;;4995073;28;20101;-59
2022/09/17 12:54:12;;;;;;;0.35;0.35;;;;;;;;;;4994587;28;20414;-58
2022/09/17 12:57:07;;;;;;;0.43;0.43;;;;;;;;;;4995283;28;20026;-59
2022/09/17 12:59:35;;;;;;;0.82;0.40;;;;;;;;;;4976841;28;20051;-59
2022/09/17 13:02:04;;;;;;;0.40;0.40;;;;;;;;;;4994959;28;20105;-60
2022/09/17 13:04:49;;;;;;;0.40;0.40;;;;;;;;;;4994461;28;20026;-59
2022/09/17 13:07:18;;;;;;;1.65;0.50;;;;;;;;;;4994399;28;20030;-58
2022/09/17 13:10:02;;;;;;;1.15;0.40;;;;;;;;;;4994170;28;20667;-59
2022/09/17 13:12:54;;;;;;;0.50;0.40;;;;;;;;;;4994752;28;20030;-58
2022/09/17 13:15:52;;;;;;;0.90;0.38;;;;;;;;;;4992749;28;20027;-60
2022/09/17 13:18:18;;;;;;;0.63;0.40;;;;;;;;;;4971132;28;20049;-57
2022/09/17 13:21:02;;;;;;;0.40;0.40;;;;;;;;;;4994575;28;20031;-59
2022/09/17 13:23:34;;;;;;;0.82;0.30;;;;;;;;;;4994110;28;20053;-59
2022/09/17 13:26:04;;;;;;;0.30;0.30;;;;;;;;;;4994083;28;20026;-59
2022/09/17 13:28:40;;;;;;;1.02;0.45;;;;;;;;;;4991861;28;20027;-60
2022/09/17 13:31:07;;;;;;;0.40;0.40;;;;;;;;;;4992056;28;20038;-59
2022/09/17 13:33:51;;;;;;;0.90;0.50;;;;;;;;;;4992535;28;20502;-60
2022/09/17 13:36:33;;;;;;;0.45;0.45;;;;;;;;;;4993805;28;20038;-60
2022/09/17 13:39:00;;;;;;;0.40;0.40;;;;;;;;;;4993631;28;20695;-59
2022/09/17 13:41:27;;;;;;;0.40;0.38;;;;;;;;;;4992052;28;20031;-61
2022/09/17 13:43:54;;;;;;;0.50;0.50;;;;;;;;;;4993814;28;20030;-60
2022/09/17 13:46:27;;;;;;;0.40;0.40;;;;;;;;;;4992331;28;20113;-57
2022/09/17 13:49:02;;;;;;;0.73;0.55;;;;;;;;;;4992906;28;20446;-55
2022/09/17 13:51:31;;;;;;;0.40;0.40;;;;;;;;;;4989304;28;20027;-55
2022/09/17 13:54:02;;;;;;;237.27;174.98;;;;;;;;;;4992758;28;20442;-53
2022/09/17 13:56:33;;;;;;;2.22;1.67;;;;;;;;;;4994269;28;20025;-57
2022/09/17 13:59:10;;;;;;;0.55;0.55;;;;;;;;;;4993735;28;20476;-52
2022/09/17 14:01:48;;;;;;;0.50;0.50;;;;;;;;;;4990796;28;20038;-57
2022/09/17 14:04:50;;;;;;;0.65;0.52;;;;;;;;;;4991723;28;20407;-58
2022/09/17 14:07:22;;;;;;;0.40;0.40;;;;;;;;;;4949024;29;20046;-53
2022/09/17 14:10:07;;;;;;;0.47;0.47;;;;;;;;;;4986118;28;20050;-57
2022/09/17 14:12:49;;;;;;;0.50;0.50;;;;;;;;;;4991233;28;20505;-54
2022/09/17 14:15:30;;;;;;;2.05;0.80;;;;;;;;;;4992954;28;20058;-55
2022/09/17 14:17:57;;;;;;;2.72;0.68;;;;;;;;;;4991569;28;20041;-60
2022/09/17 14:20:24;;;;;;;0.60;0.60;;;;;;;;;;4991541;28;20030;-54
2022/09/17 14:22:57;;;;;;;0.60;0.60;;;;;;;;;;4992211;28;20069;-63
2022/09/17 14:25:28;;;;;;;16.10;10.40;;;;;;;;;;4991785;28;20444;-61
2022/09/17 14:28:03;;;;;;;0.55;0.32;;;;;;;;;;4989962;28;20030;-63
2022/09/17 14:30:30;;;;;;;0.68;0.68;;;;;;;;;;4981861;28;20026;-59
2022/09/17 14:33:16;;;;;;;2.53;0.50;;;;;;;;;;4992452;28;20018;-62
2022/09/17 14:35:44;;;;;;;0.55;0.55;;;;;;;;;;4992404;28;20030;-57
2022/09/17 14:38:14;;;;;;;0.43;0.43;;;;;;;;;;4992324;28;20037;-58
2022/09/17 14:40:47;;;;;;;0.55;0.55;;;;;;;;;;4992640;28;20487;-55
2022/09/17 14:43:31;;;;;;;0.50;0.50;;;;;;;;;;4992675;28;20030;-58
2022/09/17 14:45:57;;;;;;;0.60;0.60;;;;;;;;;;4992679;28;20022;-57
2022/09/17 14:48:28;;;;;;;0.60;0.60;;;;;;;;;;4993017;28;20026;-58
2022/09/17 14:51:12;;;;;;;0.75;0.68;;;;;;;;;;4991815;28;20096;-59
2022/09/17 14:53:38;;;;;;;5.18;0.80;;;;;;;;;;4988251;28;20040;-56
2022/09/17 14:56:05;;;;;;;1.95;0.50;;;;;;;;;;4992760;28;20109;-57
2022/09/17 14:58:40;;;;;;;19.50;6.43;;;;;;;;;;4992372;28;20026;-57
2022/09/17 15:01:06;;;;;;;9.68;1.05;;;;;;;;;;4990435;28;20065;-58